createdAt,value
2022-09-04T00:02:26.121Z,3.20
2022-09-04T00:04:57.800Z,3.58
2022-09-04T00:07:28.049Z,3.30
2022-09-04T00:10:03.113Z,3.40
2022-09-04T00:12:35.663Z,3.65
2022-09-04T00:15:08.016Z,3.10
2022-09-04T00:17:39.209Z,3.80
2022-09-04T00:20:08.995Z,3.38
2022-09-04T00:22:40.127Z,3.53
2022-09-04T00:25:11.501Z,3.40
2022-09-04T00:27:45.078Z,3.65
2022-09-04T00:30:15.761Z,3.30
2022-09-04T00:32:46.488Z,3.47
2022-09-04T00:35:15.690Z,3.30
2022-09-04T00:37:46.785Z,3.20
2022-09-04T00:40:17.693Z,3.03
2022-09-04T00:42:52.626Z,3.67
2022-09-04T00:45:27.591Z,3.00
2022-09-04T00:48:10.744Z,3.08
2022-09-04T00:50:55.516Z,2.83
2022-09-04T00:53:36.353Z,3.40
2022-09-04T00:56:08.456Z,2.65
2022-09-04T00:58:47.667Z,2.83
2022-09-04T01:01:17.218Z,2.88
2022-09-04T01:03:53.851Z,3.10
2022-09-04T01:09:04.457Z,3.08
2022-09-04T01:11:39.250Z,2.50
2022-09-04T01:14:13.340Z,2.85
2022-09-04T01:16:45.137Z,2.67
2022-09-04T01:19:24.124Z,3.17
2022-09-04T01:21:58.815Z,2.72
2022-09-04T01:24:41.166Z,2.83
2022-09-04T01:27:14.409Z,3.03
2022-09-04T01:29:45.597Z,2.88
2022-09-04T01:32:15.981Z,2.60
2022-09-04T01:34:48.588Z,2.95
2022-09-04T01:37:31.640Z,3.08
2022-09-04T01:40:18.993Z,3.05
2022-09-04T01:42:50.616Z,2.90
2022-09-04T01:45:33.349Z,2.97
2022-09-04T01:48:03.245Z,2.72
2022-09-04T01:50:32.833Z,3.40
2022-09-04T01:53:03.714Z,2.78
2022-09-04T01:55:34.672Z,2.92
2022-09-04T01:58:08.152Z,2.90
2022-09-04T02:00:41.478Z,2.72
2022-09-04T02:03:13.552Z,2.65
2022-09-04T02:05:49.303Z,3.13
2022-09-04T02:08:24.194Z,2.70
2022-09-04T02:10:56.254Z,2.90
2022-09-04T02:13:34.035Z,2.70
2022-09-04T02:18:35.206Z,3.20
2022-09-04T02:21:06.170Z,3.00
2022-09-04T02:23:36.216Z,3.05
2022-09-04T02:26:08.196Z,2.83
2022-09-04T02:28:41.390Z,3.00
2022-09-04T02:31:12.773Z,3.53
2022-09-04T02:33:44.026Z,2.97
2022-09-04T02:36:14.300Z,3.50
2022-09-04T02:38:45.587Z,3.15
2022-09-04T02:41:15.944Z,2.97
2022-09-04T02:43:51.572Z,2.80
2022-09-04T02:46:22.640Z,3.03
2022-09-04T02:48:57.717Z,3.15
2022-09-04T02:51:31.871Z,2.60
2022-09-04T02:54:03.600Z,3.33
2022-09-04T02:56:38.801Z,2.85
2022-09-04T02:59:35.317Z,2.78
2022-09-04T03:02:04.111Z,3.30
2022-09-04T03:04:35.373Z,3.10
2022-09-04T03:07:06.779Z,2.90
2022-09-04T03:09:37.013Z,3.10
2022-09-04T03:12:06.454Z,3.08
2022-09-04T03:14:38.709Z,3.33
2022-09-04T03:17:09.839Z,3.00
2022-09-04T03:19:40.053Z,3.15
2022-09-04T03:22:11.343Z,3.10
2022-09-04T03:24:42.739Z,2.85
2022-09-04T03:27:11.663Z,3.38
2022-09-04T03:29:44.845Z,3.58
2022-09-04T03:32:17.044Z,3.13
2022-09-04T03:34:48.653Z,3.95
2022-09-04T03:37:31.051Z,2.58
2022-09-04T03:40:05.120Z,2.78
2022-09-04T03:42:36.774Z,3.55
2022-09-04T03:45:12.787Z,2.78
2022-09-04T03:47:43.797Z,3.45
2022-09-04T03:50:17.354Z,3.53
2022-09-04T03:52:50.128Z,3.25
2022-09-04T03:55:24.568Z,3.45
2022-09-04T03:57:58.732Z,3.13
2022-09-04T04:00:30.137Z,3.38
2022-09-04T04:03:03.378Z,3.35
2022-09-04T04:05:38.092Z,3.50
2022-09-04T04:08:14.482Z,3.58
2022-09-04T04:10:47.943Z,3.33
2022-09-04T04:13:33.290Z,3.85
2022-09-04T04:16:09.810Z,3.42
2022-09-04T04:18:48.427Z,3.88
2022-09-04T04:21:22.242Z,3.53
2022-09-04T04:23:58.079Z,3.85
2022-09-04T04:26:39.304Z,3.70
2022-09-04T04:29:25.413Z,3.63
2022-09-04T04:34:45.958Z,4.20
2022-09-04T04:37:18.029Z,3.88
2022-09-04T04:39:51.094Z,3.55
2022-09-04T04:42:21.936Z,3.78
2022-09-04T04:45:23.419Z,3.72
2022-09-04T04:48:01.624Z,4.20
2022-09-04T04:50:36.631Z,4.07
2022-09-04T04:53:06.731Z,3.67
2022-09-04T04:55:38.925Z,3.72
2022-09-04T04:58:19.449Z,3.45
2022-09-04T05:00:48.252Z,4.00
2022-09-04T05:03:20.156Z,4.20
2022-09-04T05:05:53.898Z,3.70
2022-09-04T05:08:26.003Z,3.58
2022-09-04T05:10:55.799Z,3.30
2022-09-04T05:13:26.555Z,4.53
2022-09-04T05:16:08.896Z,3.67
2022-09-04T05:18:40.961Z,3.80
2022-09-04T05:21:15.057Z,3.83
2022-09-04T05:23:47.185Z,3.80
2022-09-04T05:26:23.113Z,4.07
2022-09-04T05:28:56.462Z,3.80
2022-09-04T05:31:29.671Z,4.07
2022-09-04T05:34:00.305Z,3.85
2022-09-04T05:36:33.723Z,3.70
2022-09-04T05:39:07.147Z,3.67
2022-09-04T05:41:39.086Z,3.30
2022-09-04T05:44:12.099Z,4.07
2022-09-04T05:46:46.234Z,4.55
2022-09-04T05:49:23.459Z,3.33
2022-09-04T05:52:09.336Z,3.22
2022-09-04T05:54:57.856Z,3.35
2022-09-04T05:57:36.612Z,3.75
2022-09-04T06:00:07.964Z,3.95
2022-09-04T06:02:50.651Z,2.92
2022-09-04T06:05:26.260Z,3.70
2022-09-04T06:08:00.130Z,2.85
2022-09-04T06:10:30.071Z,3.08
2022-09-04T06:13:21.271Z,3.33
2022-09-04T06:15:54.795Z,3.90
2022-09-04T06:18:40.328Z,3.60
2022-09-04T06:21:12.109Z,3.55
2022-09-04T06:23:45.843Z,3.92
2022-09-04T06:26:19.096Z,3.85
2022-09-04T06:29:06.115Z,4.15
2022-09-04T06:31:46.123Z,4.07
2022-09-04T06:34:21.698Z,3.47
2022-09-04T06:36:56.105Z,4.00
2022-09-04T06:39:38.773Z,3.70
2022-09-04T06:42:13.975Z,4.38
2022-09-04T06:44:50.417Z,3.15
2022-09-04T06:47:23.089Z,3.53
2022-09-04T06:50:01.503Z,3.75
2022-09-04T06:52:31.452Z,3.60
2022-09-04T06:55:01.875Z,4.32
2022-09-04T06:57:46.620Z,3.85
2022-09-04T07:00:15.616Z,4.60
2022-09-04T07:03:02.243Z,3.33
2022-09-04T07:05:32.378Z,4.75
2022-09-04T07:08:04.803Z,3.30
2022-09-04T07:10:35.319Z,3.47
2022-09-04T07:13:26.852Z,4.70
2022-09-04T07:16:06.328Z,3.65
2022-09-04T07:18:57.863Z,3.55
2022-09-04T07:21:31.141Z,3.58
2022-09-04T07:24:03.287Z,3.00
2022-09-04T07:26:35.161Z,3.08
2022-09-04T07:29:25.663Z,3.35
2022-09-04T07:31:57.364Z,3.30
2022-09-04T07:34:27.541Z,3.47
2022-09-04T07:36:57.056Z,3.22
2022-09-04T07:39:26.113Z,3.92
2022-09-04T07:41:59.813Z,3.22
2022-09-04T07:44:30.782Z,3.30
2022-09-04T07:47:02.371Z,3.00
2022-09-04T07:49:33.472Z,2.88
2022-09-04T07:52:04.034Z,2.90
2022-09-04T07:54:39.061Z,3.58
2022-09-04T07:57:27.995Z,3.03
2022-09-04T08:00:03.098Z,4.22
2022-09-04T08:03:04.576Z,3.28
2022-09-04T08:05:32.719Z,3.60
2022-09-04T08:08:18.487Z,3.35
2022-09-04T08:10:54.425Z,3.30
2022-09-04T08:13:39.741Z,2.95
2022-09-04T08:16:09.677Z,3.10
2022-09-04T08:18:53.215Z,3.10
2022-09-04T08:21:26.942Z,2.92
2022-09-04T08:24:06.952Z,2.80
2022-09-04T08:26:39.788Z,3.03
2022-09-04T08:29:18.071Z,3.05
2022-09-04T08:31:53.924Z,3.08
2022-09-04T08:34:35.724Z,3.33
2022-09-04T08:37:09.632Z,3.10
2022-09-04T08:39:41.420Z,3.30
2022-09-04T08:42:20.985Z,3.33
2022-09-04T08:45:09.124Z,3.10
2022-09-04T08:47:53.926Z,2.92
2022-09-04T08:50:35.295Z,3.53
2022-09-04T08:53:26.827Z,2.92
2022-09-04T08:56:06.876Z,3.15
2022-09-04T08:58:54.259Z,3.55
2022-09-04T09:01:37.782Z,3.10
2022-09-04T09:04:20.764Z,2.92
2022-09-04T09:07:09.223Z,3.22
2022-09-04T09:10:03.502Z,3.17
2022-09-04T09:12:52.227Z,3.15
2022-09-04T09:15:31.351Z,3.30
2022-09-04T09:18:02.100Z,3.03
2022-09-04T09:20:32.923Z,3.08
2022-09-04T09:23:18.418Z,3.20
2022-09-04T09:26:09.121Z,3.17
2022-09-04T09:28:54.470Z,3.03
2022-09-04T09:31:34.363Z,4.13
2022-09-04T09:34:16.686Z,3.22
2022-09-04T09:37:02.666Z,3.33
2022-09-04T09:39:43.085Z,3.05
2022-09-04T09:42:29.131Z,3.10
2022-09-04T09:45:06.135Z,2.95
2022-09-04T09:47:46.416Z,2.83
2022-09-04T09:50:25.523Z,2.65
2022-09-04T09:53:21.927Z,3.30
2022-09-04T09:56:03.600Z,2.80
2022-09-04T09:58:46.562Z,3.30
2022-09-04T10:01:27.289Z,2.85
2022-09-04T10:04:11.753Z,2.78
2022-09-04T10:06:53.742Z,2.40
2022-09-04T10:09:50.359Z,2.97
2022-09-04T10:12:32.684Z,2.63
2022-09-04T10:15:18.655Z,2.80
2022-09-04T10:17:55.577Z,2.83
2022-09-04T10:20:53.868Z,2.80
2022-09-04T10:23:34.088Z,2.90
2022-09-04T10:26:20.165Z,2.22
2022-09-04T10:29:05.151Z,2.95
2022-09-04T10:31:50.716Z,3.40
2022-09-04T10:34:25.943Z,2.75
2022-09-04T10:37:00.663Z,3.30
2022-09-04T10:39:51.914Z,3.58
2022-09-04T10:42:27.335Z,3.78
2022-09-04T10:45:01.208Z,2.97
2022-09-04T10:47:37.363Z,2.60
2022-09-04T10:50:12.720Z,2.80
2022-09-04T10:53:01.152Z,3.60
2022-09-04T10:55:42.378Z,2.65
2022-09-04T10:58:25.236Z,2.33
2022-09-04T11:01:13.814Z,2.38
2022-09-04T11:03:54.313Z,2.22
2022-09-04T11:06:38.984Z,2.33
2022-09-04T11:09:21.397Z,2.60
2022-09-04T11:11:59.367Z,2.53
2022-09-04T11:14:36.759Z,2.33
2022-09-04T11:22:20.557Z,2.42
2022-09-04T11:25:09.107Z,2.38
2022-09-04T11:27:56.118Z,2.28
2022-09-04T11:30:29.835Z,2.38
2022-09-04T11:33:14.118Z,2.50
2022-09-04T11:36:05.744Z,2.28
2022-09-04T11:38:44.517Z,2.10
2022-09-04T11:41:32.767Z,2.55
2022-09-04T11:44:33.466Z,2.50
2022-09-04T11:47:24.764Z,2.50
2022-09-04T11:49:59.126Z,2.80
2022-09-04T11:52:28.146Z,2.25
2022-09-04T11:55:06.535Z,2.25
2022-09-04T11:57:41.567Z,2.55
2022-09-04T12:00:11.427Z,2.05
2022-09-04T12:02:57.051Z,2.20
2022-09-04T12:05:40.319Z,1.83
2022-09-04T12:08:17.260Z,2.10
2022-09-04T12:10:55.749Z,1.90
2022-09-04T12:13:40.077Z,1.90
2022-09-04T12:16:23.541Z,1.77
2022-09-04T12:18:58.761Z,1.48
2022-09-04T12:21:41.146Z,2.00
2022-09-04T12:24:35.883Z,1.77
2022-09-04T12:27:17.023Z,1.80
2022-09-04T12:30:08.547Z,1.38
2022-09-04T12:32:55.403Z,1.60
2022-09-04T12:35:35.890Z,2.05
2022-09-04T12:38:25.403Z,1.50
2022-09-04T12:40:59.165Z,1.65
2022-09-04T12:43:36.922Z,2.03
2022-09-04T12:46:12.680Z,1.75
2022-09-04T12:48:46.158Z,1.58
2022-09-04T12:51:14.292Z,2.20
2022-09-04T12:53:52.948Z,1.77
2022-09-04T12:56:27.765Z,1.60
2022-09-04T12:59:06.749Z,1.75
2022-09-04T13:01:48.277Z,1.60
2022-09-04T13:04:20.189Z,1.70
2022-09-04T13:06:53.913Z,1.58
2022-09-04T13:09:25.923Z,2.10
2022-09-04T13:11:59.308Z,1.23
2022-09-04T13:14:43.796Z,1.50
2022-09-04T13:17:16.727Z,1.48
2022-09-04T13:19:52.369Z,1.30
2022-09-04T13:22:28.590Z,1.30
2022-09-04T13:25:02.275Z,1.40
2022-09-04T13:27:39.220Z,1.42
2022-09-04T13:30:08.275Z,1.42
2022-09-04T13:32:48.764Z,1.50
2022-09-04T13:35:24.195Z,1.70
2022-09-04T13:38:03.276Z,1.20
2022-09-04T13:40:41.026Z,1.38
2022-09-04T13:43:19.165Z,1.30
2022-09-04T13:45:48.814Z,1.00
2022-09-04T13:48:21.021Z,1.20
2022-09-04T13:50:52.141Z,1.35
2022-09-04T13:53:22.817Z,1.17
2022-09-04T13:55:54.178Z,1.20
2022-09-04T13:58:26.661Z,1.45
2022-09-04T14:00:57.035Z,1.27
2022-09-04T14:03:30.710Z,1.15
2022-09-04T14:05:59.113Z,0.95
2022-09-04T14:08:31.187Z,1.50
2022-09-04T14:11:22.573Z,1.10
2022-09-04T14:14:10.812Z,1.00
2022-09-04T14:16:38.927Z,1.67
2022-09-04T14:19:16.327Z,1.38
2022-09-04T14:21:52.635Z,1.20
2022-09-04T14:24:23.334Z,1.10
2022-09-04T14:26:56.823Z,1.58
2022-09-04T14:29:31.203Z,1.10
2022-09-04T14:32:10.648Z,1.60
2022-09-04T14:34:43.805Z,1.27
2022-09-04T14:37:19.720Z,1.30
2022-09-04T14:39:48.954Z,1.30
2022-09-04T14:42:25.602Z,1.27
2022-09-04T14:44:59.761Z,1.10
2022-09-04T14:47:33.170Z,1.90
2022-09-04T14:50:01.853Z,1.70
2022-09-04T14:52:35.466Z,1.38
2022-09-04T14:55:07.274Z,1.45
2022-09-04T14:57:38.547Z,1.40
2022-09-04T15:00:14.677Z,1.65
2022-09-04T15:02:44.623Z,1.60
2022-09-04T15:05:17.634Z,1.30
2022-09-04T15:07:53.321Z,1.65
2022-09-04T15:10:24.399Z,1.63
2022-09-04T15:12:54.486Z,1.92
2022-09-04T15:15:31.510Z,1.42
2022-09-04T15:18:01.740Z,1.50
2022-09-04T15:20:31.478Z,2.10
2022-09-04T15:23:01.812Z,1.25
2022-09-04T15:25:58.912Z,1.50
2022-09-04T15:28:29.667Z,1.40
2022-09-04T15:31:05.385Z,1.30
2022-09-04T15:33:32.858Z,1.60
2022-09-04T15:43:43.519Z,1.90
2022-09-04T15:46:17.459Z,2.30
2022-09-04T15:48:48.014Z,1.50
2022-09-04T15:51:19.783Z,1.65
2022-09-04T15:53:53.198Z,1.98
2022-09-04T15:56:36.871Z,1.80
2022-09-04T15:59:09.321Z,1.40
2022-09-04T16:01:44.224Z,1.70
2022-09-04T16:04:17.091Z,2.00
2022-09-04T16:06:47.774Z,1.88
2022-09-04T16:09:20.349Z,1.98
2022-09-04T16:11:48.687Z,1.95
2022-09-04T16:14:19.306Z,2.80
2022-09-04T16:16:51.152Z,1.83
2022-09-04T16:19:23.932Z,2.13
2022-09-04T16:21:55.148Z,1.98
2022-09-04T16:24:30.352Z,2.78
2022-09-04T16:26:58.462Z,1.92
2022-09-04T16:29:29.304Z,1.58
2022-09-04T16:31:58.802Z,2.90
2022-09-04T16:34:27.728Z,8.75
2022-09-04T16:37:01.739Z,3.47
2022-09-04T16:39:32.742Z,3.38
2022-09-04T16:42:10.192Z,3.10
2022-09-04T16:47:10.395Z,2.13
2022-09-04T16:49:42.177Z,2.10
2022-09-04T16:52:23.872Z,3.25
2022-09-04T16:54:55.097Z,2.70
2022-09-04T16:57:27.819Z,2.08
2022-09-04T16:59:58.606Z,2.15
2022-09-04T17:02:35.888Z,2.15
2022-09-04T17:05:13.276Z,2.08
2022-09-04T17:07:44.644Z,2.13
2022-09-04T17:10:20.266Z,2.42
2022-09-04T17:12:52.495Z,2.28
2022-09-04T17:15:25.466Z,2.22
2022-09-04T17:17:56.025Z,1.90
2022-09-04T17:20:41.971Z,2.63
2022-09-04T17:28:58.185Z,1.77
2022-09-04T17:29:11.747Z,2.08
2022-09-04T17:29:28.104Z,2.03
2022-09-04T17:31:53.248Z,2.40
2022-09-04T17:40:35.959Z,2.40
2022-09-04T17:40:38.518Z,2.50
2022-09-04T17:41:31.276Z,3.10
2022-09-04T17:43:22.602Z,3.30
2022-09-04T17:45:52.199Z,3.15
2022-09-04T17:48:21.575Z,3.45
2022-09-04T17:50:52.401Z,2.75
2022-09-04T17:53:33.302Z,2.33
2022-09-04T17:56:06.982Z,2.33
2022-09-04T17:58:39.161Z,2.15
2022-09-04T18:01:14.976Z,2.80
2022-09-04T18:04:20.010Z,2.53
2022-09-04T18:06:40.327Z,2.08
2022-09-04T18:09:12.136Z,1.90
2022-09-04T18:11:45.775Z,2.40
2022-09-04T18:17:12.527Z,2.28
2022-09-04T18:19:43.610Z,2.60
2022-09-04T18:22:25.611Z,2.40
2022-09-04T18:25:00.186Z,2.65
2022-09-04T18:27:51.333Z,2.80
2022-09-04T18:37:05.179Z,2.40
2022-09-04T18:37:19.635Z,2.50
2022-09-04T18:37:21.162Z,2.53
2022-09-04T18:39:26.039Z,2.80
2022-09-04T18:50:25.618Z,2.78
2022-09-04T18:50:28.539Z,2.38
2022-09-04T18:50:42.919Z,2.80
2022-09-04T18:53:22.523Z,3.10
2022-09-04T18:55:54.630Z,3.45
2022-09-04T18:58:31.286Z,3.60
2022-09-04T19:01:00.280Z,3.45
2022-09-04T19:03:31.699Z,3.55
2022-09-04T19:06:00.623Z,3.38
2022-09-04T19:08:31.192Z,3.95
2022-09-04T19:11:03.116Z,3.55
2022-09-04T19:13:47.416Z,3.35
2022-09-04T19:16:18.567Z,4.00
2022-09-04T19:18:49.665Z,3.22
2022-09-04T19:21:21.768Z,3.63
2022-09-04T19:23:53.657Z,2.90
2022-09-04T19:26:26.109Z,3.60
2022-09-04T19:28:56.605Z,4.28
2022-09-04T19:31:27.663Z,3.47
2022-09-04T19:33:58.238Z,3.90
2022-09-04T19:36:30.887Z,3.58
2022-09-04T19:45:57.374Z,4.13
2022-09-04T19:46:04.886Z,3.78
2022-09-04T19:46:13.318Z,4.20
2022-09-04T19:47:43.219Z,3.80
2022-09-04T19:53:18.058Z,4.55
2022-09-04T19:53:31.358Z,4.15
2022-09-04T19:55:55.573Z,4.30
2022-09-04T19:58:26.302Z,4.53
2022-09-04T20:00:56.036Z,4.03
2022-09-04T20:03:30.281Z,4.13
2022-09-04T20:06:21.025Z,3.92
2022-09-04T20:08:51.536Z,3.50
2022-09-04T20:11:34.926Z,3.90
2022-09-04T20:14:13.841Z,4.25
2022-09-04T20:16:48.826Z,4.30
2022-09-04T20:19:27.642Z,3.92
2022-09-04T20:21:57.709Z,4.05
2022-09-04T20:24:26.825Z,4.70
2022-09-04T20:26:57.405Z,3.90
2022-09-04T20:29:30.848Z,4.20
2022-09-04T20:32:02.723Z,4.60
2022-09-04T20:34:38.369Z,4.63
2022-09-04T20:37:19.192Z,6.47
2022-09-04T20:39:49.630Z,5.60
2022-09-04T20:42:20.885Z,5.35
2022-09-04T20:48:00.981Z,4.57
2022-09-04T20:52:41.601Z,4.95
2022-09-04T20:52:58.599Z,4.88
2022-09-04T20:53:24.240Z,4.95
2022-09-04T20:55:59.919Z,4.97
2022-09-04T21:03:12.165Z,5.30
2022-09-04T21:03:13.238Z,5.88
2022-09-04T21:04:42.092Z,5.35
2022-09-04T21:07:17.848Z,5.03
2022-09-04T21:09:55.071Z,4.82
2022-09-04T21:12:31.237Z,5.53
2022-09-04T21:15:04.079Z,5.07
2022-09-04T21:18:01.494Z,4.97
2022-09-04T21:23:04.091Z,5.20
2022-09-04T21:25:35.802Z,4.68
2022-09-04T21:28:15.802Z,5.28
2022-09-04T21:30:52.082Z,5.03
2022-09-04T21:33:28.596Z,4.80
2022-09-04T21:36:26.809Z,4.80
2022-09-04T21:39:00.420Z,4.78
2022-09-04T21:41:35.194Z,5.05
2022-09-04T21:44:23.800Z,4.57
2022-09-04T21:46:58.796Z,5.05
2022-09-04T21:49:44.168Z,5.38
2022-09-04T21:52:19.965Z,4.93
2022-09-04T21:58:00.476Z,5.15
2022-09-04T22:02:35.824Z,5.22
2022-09-04T22:02:40.786Z,5.10
2022-09-04T22:03:54.700Z,4.80
2022-09-04T22:06:55.706Z,5.13
2022-09-04T22:13:29.562Z,5.20
2022-09-04T22:13:38.065Z,4.75
2022-09-04T22:15:00.036Z,4.50
2022-09-04T22:17:36.018Z,4.93
2022-09-04T22:20:19.497Z,4.97
2022-09-04T22:23:04.588Z,5.30
2022-09-04T22:25:46.036Z,4.97
2022-09-04T22:28:43.727Z,4.95
2022-09-04T22:31:29.404Z,5.55
2022-09-04T22:34:16.196Z,5.47
2022-09-04T22:39:31.683Z,5.72
2022-09-04T22:42:06.964Z,5.30
2022-09-04T22:44:43.107Z,6.03
2022-09-04T22:47:32.433Z,5.80
2022-09-04T22:50:14.761Z,5.32
2022-09-04T22:52:55.308Z,6.60
2022-09-04T22:56:05.295Z,6.50
2022-09-04T22:58:27.277Z,6.22
2022-09-04T23:01:04.648Z,6.35
2022-09-04T23:03:39.040Z,6.10
2022-09-04T23:07:45.709Z,6.13
2022-09-04T23:13:42.883Z,6.43
2022-09-04T23:14:02.711Z,5.95
2022-09-04T23:15:21.699Z,6.00
2022-09-04T23:20:35.788Z,6.20
2022-09-04T23:26:35.912Z,5.45
2022-09-04T23:26:48.655Z,5.93
2022-09-04T23:27:00.736Z,5.97
2022-09-04T23:29:41.172Z,6.82
2022-09-04T23:32:36.521Z,6.90
2022-09-04T23:35:15.117Z,6.15
2022-09-04T23:37:59.915Z,6.38
2022-09-04T23:40:46.867Z,6.90
2022-09-04T23:43:30.368Z,6.50
2022-09-04T23:46:13.102Z,6.82
2022-09-04T23:48:47.563Z,6.50
2022-09-04T23:51:21.375Z,6.22
2022-09-04T23:53:53.741Z,5.70
2022-09-04T23:56:25.787Z,5.82
2022-09-04T23:59:20.802Z,6.25
